createdAt,value
2022-08-22T00:01:12.080Z,2.40
2022-08-22T00:02:55.205Z,2.47
2022-08-22T00:03:12.013Z,2.30
2022-08-22T00:04:51.606Z,2.60
2022-08-22T00:08:09.837Z,2.75
2022-08-22T00:11:53.824Z,2.58
2022-08-22T00:15:08.112Z,3.17
2022-08-22T00:18:32.506Z,2.70
2022-08-22T00:21:44.393Z,2.60
2022-08-22T00:25:04.921Z,2.67
2022-08-22T00:28:17.528Z,2.67
2022-08-22T00:31:29.077Z,2.45
2022-08-22T00:34:46.497Z,2.60
2022-08-22T00:37:59.959Z,1.95
2022-08-22T00:41:31.687Z,2.53
2022-08-22T00:44:58.598Z,2.25
2022-08-22T00:48:18.095Z,3.20
2022-08-22T00:51:50.735Z,2.15
2022-08-22T00:55:14.744Z,2.20
2022-08-22T00:58:39.356Z,2.12
2022-08-22T01:01:52.760Z,2.08
2022-08-22T01:05:13.728Z,1.90
2022-08-22T01:08:22.051Z,2.00
2022-08-22T01:11:51.875Z,1.92
2022-08-22T01:15:07.870Z,2.25
2022-08-22T01:18:19.277Z,2.67
2022-08-22T01:21:46.934Z,1.95
2022-08-22T01:25:20.913Z,2.62
2022-08-22T01:28:46.497Z,2.15
2022-08-22T01:32:17.503Z,2.00
2022-08-22T01:35:39.742Z,2.28
2022-08-22T01:38:41.851Z,2.00
2022-08-22T01:41:56.243Z,2.53
2022-08-22T01:45:17.223Z,2.00
2022-08-22T01:48:37.853Z,1.75
2022-08-22T01:51:40.017Z,2.30
2022-08-22T01:54:45.163Z,1.80
2022-08-22T01:57:57.992Z,1.77
2022-08-22T02:01:08.445Z,2.22
2022-08-22T02:04:31.257Z,2.08
2022-08-22T02:07:48.722Z,2.00
2022-08-22T02:11:01.878Z,1.98
2022-08-22T02:14:26.014Z,1.90
2022-08-22T02:17:31.775Z,2.03
2022-08-22T02:21:09.473Z,2.00
2022-08-22T02:24:33.067Z,1.90
2022-08-22T02:27:59.115Z,1.90
2022-08-22T02:31:16.947Z,1.80
2022-08-22T02:34:28.326Z,2.60
2022-08-22T02:38:13.326Z,1.90
2022-08-22T02:41:22.470Z,2.17
2022-08-22T02:44:30.736Z,1.98
2022-08-22T02:47:41.234Z,2.00
2022-08-22T02:51:01.779Z,2.03
2022-08-22T02:54:31.260Z,2.53
2022-08-22T02:57:39.656Z,1.98
2022-08-22T03:01:17.232Z,2.47
2022-08-22T03:04:31.545Z,2.30
2022-08-22T03:07:40.010Z,2.10
2022-08-22T03:10:49.217Z,2.47
2022-08-22T03:13:56.974Z,2.35
2022-08-22T03:17:23.347Z,2.22
2022-08-22T03:20:54.012Z,2.10
2022-08-22T03:24:04.876Z,2.53
2022-08-22T03:27:33.167Z,2.30
2022-08-22T03:30:45.831Z,2.25
2022-08-22T03:34:18.918Z,2.78
2022-08-22T03:37:35.852Z,2.55
2022-08-22T03:41:17.784Z,2.58
2022-08-22T03:44:45.254Z,2.67
2022-08-22T03:47:59.605Z,2.33
2022-08-22T03:51:19.484Z,2.70
2022-08-22T03:54:30.491Z,2.60
2022-08-22T04:01:08.259Z,2.50
2022-08-22T04:04:33.717Z,2.80
2022-08-22T04:07:54.571Z,3.45
2022-08-22T04:10:57.089Z,2.45
2022-08-22T04:14:24.514Z,3.03
2022-08-22T04:17:54.888Z,2.40
2022-08-22T04:21:29.287Z,3.00
2022-08-22T04:24:38.840Z,3.25
2022-08-22T04:27:59.767Z,3.30
2022-08-22T04:31:09.516Z,3.12
2022-08-22T04:34:30.707Z,2.95
2022-08-22T04:37:39.168Z,3.42
2022-08-22T04:40:46.922Z,3.60
2022-08-22T04:43:56.456Z,3.40
2022-08-22T04:47:18.330Z,3.95
2022-08-22T04:50:26.706Z,3.80
2022-08-22T04:53:41.374Z,4.00
2022-08-22T04:57:02.864Z,3.45
2022-08-22T05:00:08.419Z,3.53
2022-08-22T05:03:14.256Z,3.97
2022-08-22T05:06:19.796Z,3.87
2022-08-22T05:09:29.263Z,3.80
2022-08-22T05:12:34.591Z,4.18
2022-08-22T05:15:43.678Z,4.12
2022-08-22T05:18:53.994Z,4.80
2022-08-22T05:21:57.163Z,4.43
2022-08-22T05:25:11.011Z,4.12
2022-08-22T05:28:35.002Z,4.40
2022-08-22T05:31:48.145Z,3.97
2022-08-22T05:34:52.020Z,4.00
2022-08-22T05:37:55.102Z,4.45
2022-08-22T05:41:02.782Z,4.72
2022-08-22T05:44:13.719Z,4.35
2022-08-22T05:47:25.057Z,5.03
2022-08-22T05:50:53.445Z,4.47
2022-08-22T05:54:08.944Z,3.90
2022-08-22T05:57:29.929Z,3.70
2022-08-22T06:00:39.925Z,3.92
2022-08-22T06:04:06.234Z,3.83
2022-08-22T06:07:23.941Z,4.15
2022-08-22T06:10:29.740Z,4.07
2022-08-22T06:13:43.146Z,3.95
2022-08-22T06:16:57.923Z,3.95
2022-08-22T06:20:00.340Z,3.92
2022-08-22T06:23:03.398Z,4.00
2022-08-22T06:26:06.634Z,4.15
2022-08-22T06:29:40.194Z,4.43
2022-08-22T06:32:59.739Z,4.65
2022-08-22T06:36:26.418Z,4.37
2022-08-22T06:39:41.137Z,4.62
2022-08-22T06:42:47.314Z,4.87
2022-08-22T06:45:50.061Z,4.05
2022-08-22T06:48:54.920Z,5.22
2022-08-22T06:52:00.871Z,4.97
2022-08-22T06:55:07.184Z,4.30
2022-08-22T06:58:17.028Z,4.90
2022-08-22T07:01:26.144Z,4.82
2022-08-22T07:04:29.178Z,4.87
2022-08-22T07:07:31.632Z,4.47
2022-08-22T07:10:33.989Z,4.75
2022-08-22T07:13:38.544Z,4.47
2022-08-22T07:16:55.178Z,4.70
2022-08-22T07:20:08.038Z,4.28
2022-08-22T07:23:12.904Z,4.82
2022-08-22T07:26:21.092Z,4.32
2022-08-22T07:29:32.563Z,4.68
2022-08-22T07:32:42.011Z,5.35
2022-08-22T07:35:53.034Z,4.78
2022-08-22T07:39:11.213Z,4.93
2022-08-22T07:42:21.655Z,5.20
2022-08-22T07:45:59.917Z,5.33
2022-08-22T07:49:32.747Z,4.85
2022-08-22T07:52:42.670Z,5.37
2022-08-22T07:55:49.356Z,6.00
2022-08-22T07:59:14.665Z,4.62
2022-08-22T08:02:18.895Z,4.62
2022-08-22T08:05:24.024Z,5.00
2022-08-22T08:08:41.780Z,4.35
2022-08-22T08:11:44.967Z,4.37
2022-08-22T08:14:51.848Z,4.55
2022-08-22T08:17:58.495Z,4.65
2022-08-22T08:21:04.921Z,4.60
2022-08-22T08:24:09.135Z,5.28
2022-08-22T08:27:40.311Z,4.72
2022-08-22T08:30:52.421Z,4.60
2022-08-22T08:34:05.221Z,4.72
2022-08-22T08:37:45.118Z,4.82
2022-08-22T08:40:57.397Z,4.62
2022-08-22T08:44:18.069Z,4.85
2022-08-22T08:47:33.279Z,5.35
2022-08-22T08:50:49.874Z,5.15
2022-08-22T08:54:09.562Z,4.62
2022-08-22T08:57:26.857Z,4.93
2022-08-22T09:00:51.125Z,4.32
2022-08-22T09:04:22.548Z,3.67
2022-08-22T09:07:32.721Z,3.85
2022-08-22T09:11:14.280Z,4.23
2022-08-22T09:14:34.694Z,3.37
2022-08-22T09:17:44.748Z,2.97
2022-08-22T09:20:49.718Z,3.50
2022-08-22T09:24:04.140Z,3.12
2022-08-22T09:27:34.009Z,3.58
2022-08-22T09:31:21.953Z,3.60
2022-08-22T09:34:43.756Z,3.15
2022-08-22T09:38:26.847Z,3.25
2022-08-22T09:41:45.096Z,3.12
2022-08-22T09:45:19.444Z,3.67
2022-08-22T09:48:40.121Z,3.20
2022-08-22T09:52:14.375Z,3.55
2022-08-22T09:55:38.861Z,3.72
2022-08-22T09:58:47.956Z,3.75
2022-08-22T10:02:00.237Z,3.12
2022-08-22T10:05:07.718Z,3.03
2022-08-22T10:08:14.797Z,3.37
2022-08-22T10:11:50.099Z,3.40
2022-08-22T10:15:07.012Z,3.20
2022-08-22T10:18:30.953Z,3.62
2022-08-22T10:21:46.782Z,3.28
2022-08-22T10:25:04.985Z,3.33
2022-08-22T10:28:28.538Z,3.17
2022-08-22T10:31:35.243Z,4.07
2022-08-22T10:34:50.695Z,3.42
2022-08-22T10:37:55.216Z,3.50
2022-08-22T10:41:08.827Z,3.40
2022-08-22T10:44:31.706Z,3.35
2022-08-22T10:48:39.895Z,3.20
2022-08-22T10:51:47.220Z,3.40
2022-08-22T10:55:11.695Z,2.72
2022-08-22T10:58:19.002Z,2.95
2022-08-22T11:01:38.330Z,2.93
2022-08-22T11:04:54.345Z,3.17
2022-08-22T11:08:00.564Z,3.20
2022-08-22T11:11:22.863Z,3.28
2022-08-22T11:14:46.916Z,3.22
2022-08-22T11:18:01.208Z,2.80
2022-08-22T11:21:07.470Z,3.30
2022-08-22T11:24:36.153Z,3.92
2022-08-22T11:28:03.961Z,3.70
2022-08-22T11:31:31.750Z,2.90
2022-08-22T11:34:51.057Z,3.33
2022-08-22T11:38:00.972Z,4.03
2022-08-22T11:41:07.979Z,3.33
2022-08-22T11:44:18.859Z,3.20
2022-08-22T11:50:36.670Z,3.28
2022-08-22T11:53:44.082Z,3.00
2022-08-22T11:56:54.247Z,3.33
2022-08-22T12:00:13.362Z,4.30
2022-08-22T12:03:37.007Z,3.70
2022-08-22T12:06:49.754Z,3.60
2022-08-22T12:10:13.963Z,4.78
2022-08-22T12:13:49.251Z,4.68
2022-08-22T12:16:54.343Z,4.00
2022-08-22T12:20:16.754Z,3.70
2022-08-22T12:23:43.293Z,3.67
2022-08-22T12:27:06.481Z,4.10
2022-08-22T12:30:17.225Z,3.37
2022-08-22T12:33:55.609Z,3.72
2022-08-22T12:37:39.804Z,3.62
2022-08-22T12:41:28.219Z,4.10
2022-08-22T12:45:02.398Z,3.45
2022-08-22T12:48:45.373Z,3.97
2022-08-22T12:52:14.900Z,3.92
2022-08-22T12:55:33.300Z,4.32
2022-08-22T12:58:57.531Z,3.65
2022-08-22T13:02:03.283Z,3.42
2022-08-22T13:05:13.816Z,3.78
2022-08-22T13:08:31.332Z,4.30
2022-08-22T13:11:37.836Z,3.42
2022-08-22T13:14:41.243Z,3.78
2022-08-22T13:17:44.626Z,3.33
2022-08-22T13:20:50.594Z,3.17
2022-08-22T13:23:54.709Z,3.20
2022-08-22T13:27:00.962Z,3.33
2022-08-22T13:30:17.376Z,3.10
2022-08-22T13:33:26.666Z,3.85
2022-08-22T13:36:30.630Z,3.22
2022-08-22T13:39:36.210Z,3.30
2022-08-22T13:42:50.445Z,2.95
2022-08-22T13:46:01.985Z,2.83
2022-08-22T13:49:10.322Z,3.78
2022-08-22T13:52:29.590Z,3.50
2022-08-22T13:55:49.510Z,3.37
2022-08-22T13:58:56.407Z,4.03
2022-08-22T14:02:09.169Z,3.92
2022-08-22T14:05:24.949Z,4.25
2022-08-22T14:08:28.717Z,4.50
2022-08-22T14:11:38.828Z,4.45
2022-08-22T14:14:46.797Z,4.20
2022-08-22T14:17:52.051Z,4.20
2022-08-22T14:21:40.796Z,4.37
2022-08-22T14:24:47.730Z,4.72
2022-08-22T14:28:09.047Z,4.43
2022-08-22T14:31:13.849Z,4.75
2022-08-22T14:34:16.595Z,4.95
2022-08-22T14:37:23.051Z,4.93
2022-08-22T14:40:29.701Z,5.55
2022-08-22T14:43:31.986Z,5.35
2022-08-22T14:46:43.921Z,5.47
2022-08-22T14:49:57.127Z,5.45
2022-08-22T14:53:12.150Z,5.78
2022-08-22T14:56:19.519Z,4.50
2022-08-22T14:59:40.484Z,4.50
2022-08-22T15:02:42.868Z,4.28
2022-08-22T15:05:58.396Z,4.37
2022-08-22T15:09:02.136Z,4.65
2022-08-22T15:12:47.658Z,4.82
2022-08-22T15:15:54.421Z,4.28
2022-08-22T15:19:00.035Z,3.85
2022-08-22T15:22:21.034Z,4.22
2022-08-22T15:28:28.022Z,3.78
2022-08-22T15:31:46.835Z,3.85
2022-08-22T15:34:52.234Z,2.25
2022-08-22T15:38:04.106Z,2.30
2022-08-22T15:41:25.267Z,2.35
2022-08-22T15:44:36.357Z,2.10
2022-08-22T15:47:41.343Z,2.00
2022-08-22T15:51:05.021Z,2.35
2022-08-22T15:54:34.825Z,2.70
2022-08-22T15:57:39.263Z,2.22
2022-08-22T16:00:45.565Z,2.10
2022-08-22T16:04:14.587Z,2.12
2022-08-22T16:07:45.915Z,2.58
2022-08-22T16:10:53.822Z,2.30
2022-08-22T16:14:16.390Z,1.70
2022-08-22T16:17:30.757Z,1.70
2022-08-22T16:20:32.916Z,1.70
2022-08-22T16:23:50.147Z,1.52
2022-08-22T16:26:54.336Z,1.77
2022-08-22T16:30:08.127Z,1.98
2022-08-22T16:33:17.853Z,2.42
2022-08-22T16:36:21.018Z,2.08
2022-08-22T16:39:23.200Z,2.00
2022-08-22T16:42:28.860Z,1.85
2022-08-22T16:45:35.858Z,1.98
2022-08-22T16:48:39.602Z,1.80
2022-08-22T16:52:23.179Z,1.55
2022-08-22T16:55:31.335Z,1.80
2022-08-22T16:59:13.870Z,2.50
2022-08-22T17:02:57.154Z,1.55
2022-08-22T17:06:36.802Z,1.35
2022-08-22T17:10:02.499Z,1.30
2022-08-22T17:13:07.593Z,1.20
2022-08-22T17:17:02.719Z,1.30
2022-08-22T17:20:38.454Z,1.40
2022-08-22T17:23:51.016Z,1.30
2022-08-22T17:26:59.102Z,1.30
2022-08-22T17:30:09.467Z,1.30
2022-08-22T17:33:11.768Z,1.30
2022-08-22T17:36:27.566Z,1.20
2022-08-22T17:39:55.676Z,1.50
2022-08-22T17:42:58.609Z,1.30
2022-08-22T17:46:13.653Z,1.50
2022-08-22T17:49:50.282Z,1.42
2022-08-22T17:53:02.778Z,1.60
2022-08-22T17:56:41.056Z,1.45
2022-08-22T17:59:50.545Z,1.90
2022-08-22T18:03:23.263Z,2.05
2022-08-22T18:06:31.036Z,2.10
2022-08-22T18:09:46.727Z,1.95
2022-08-22T18:13:06.183Z,2.50
2022-08-22T18:16:23.195Z,3.05
2022-08-22T18:19:46.826Z,2.95
2022-08-22T18:22:57.067Z,3.03
2022-08-22T18:26:31.626Z,2.85
2022-08-22T18:29:44.294Z,2.72
2022-08-22T18:33:42.163Z,3.25
2022-08-22T18:37:06.129Z,2.55
2022-08-22T18:40:08.461Z,3.15
2022-08-22T18:43:17.937Z,3.15
2022-08-22T18:46:32.088Z,3.50
2022-08-22T18:49:34.283Z,3.20
2022-08-22T18:52:38.073Z,3.12
2022-08-22T18:55:56.212Z,3.10
2022-08-22T18:59:07.492Z,3.50
2022-08-22T19:02:21.690Z,2.70
2022-08-22T19:05:51.700Z,2.80
2022-08-22T19:09:20.213Z,2.95
2022-08-22T19:12:25.946Z,2.28
2022-08-22T19:15:55.306Z,2.53
2022-08-22T19:18:58.698Z,2.87
2022-08-22T19:22:19.521Z,2.90
2022-08-22T19:25:28.091Z,2.65
2022-08-22T19:28:36.997Z,2.30
2022-08-22T19:31:41.165Z,2.22
2022-08-22T19:34:46.881Z,2.97
2022-08-22T19:37:56.722Z,3.80
2022-08-22T19:40:59.418Z,2.95
2022-08-22T19:44:04.389Z,3.75
2022-08-22T19:47:18.894Z,2.92
2022-08-22T19:50:21.338Z,3.03
2022-08-22T19:53:44.440Z,2.50
2022-08-22T19:57:05.055Z,2.55
2022-08-22T20:00:18.222Z,2.70
2022-08-22T20:03:26.374Z,2.83
2022-08-22T20:06:44.104Z,2.92
2022-08-22T20:10:09.592Z,2.40
2022-08-22T20:13:24.363Z,2.33
2022-08-22T20:16:59.351Z,3.17
2022-08-22T20:20:17.344Z,2.42
2022-08-22T20:23:27.490Z,2.87
2022-08-22T20:26:30.106Z,3.03
2022-08-22T20:29:36.418Z,2.80
2022-08-22T20:32:58.073Z,2.80
2022-08-22T20:36:18.526Z,2.90
2022-08-22T20:39:39.499Z,2.87
2022-08-22T20:42:45.431Z,3.12
2022-08-22T20:45:57.627Z,2.67
2022-08-22T20:49:01.534Z,3.08
2022-08-22T20:52:23.759Z,2.83
2022-08-22T20:55:31.614Z,2.80
2022-08-22T20:58:38.888Z,2.30
2022-08-22T21:01:41.285Z,2.20
2022-08-22T21:05:00.225Z,2.42
2022-08-22T21:08:10.595Z,2.67
2022-08-22T21:11:43.407Z,2.93
2022-08-22T21:14:48.921Z,2.58
2022-08-22T21:17:51.343Z,2.90
2022-08-22T21:20:54.004Z,2.87
2022-08-22T21:24:06.371Z,3.78
2022-08-22T21:27:09.331Z,3.37
2022-08-22T21:30:12.147Z,3.05
2022-08-22T21:33:23.712Z,3.10
2022-08-22T21:36:30.359Z,3.47
2022-08-22T21:39:40.826Z,3.20
2022-08-22T21:42:57.818Z,3.10
2022-08-22T21:46:00.205Z,3.35
2022-08-22T21:49:05.022Z,3.45
2022-08-22T21:52:07.257Z,3.28
2022-08-22T21:55:23.462Z,2.85
2022-08-22T21:58:36.709Z,2.70
2022-08-22T22:01:42.754Z,3.42
2022-08-22T22:04:48.101Z,3.30
2022-08-22T22:07:51.928Z,3.28
2022-08-22T22:10:56.502Z,3.33
2022-08-22T22:13:58.969Z,2.95
2022-08-22T22:17:01.173Z,2.60
2022-08-22T22:20:04.503Z,4.57
2022-08-22T22:23:07.305Z,5.40
2022-08-22T22:26:10.055Z,3.53
2022-08-22T22:29:12.293Z,3.08
2022-08-22T22:32:15.270Z,2.87
2022-08-22T22:35:18.009Z,2.78
2022-08-22T22:38:24.110Z,2.83
2022-08-22T22:41:26.866Z,2.95
2022-08-22T22:44:29.058Z,3.30
2022-08-22T22:47:33.049Z,2.50
2022-08-22T22:50:40.664Z,3.12
2022-08-22T22:53:43.838Z,2.67
2022-08-22T22:56:47.983Z,2.95
2022-08-22T22:59:50.385Z,2.40
2022-08-22T23:02:53.348Z,2.70
2022-08-22T23:05:55.557Z,2.90
2022-08-22T23:08:58.283Z,2.55
2022-08-22T23:12:01.197Z,3.10
2022-08-22T23:15:05.433Z,2.70
2022-08-22T23:18:07.651Z,2.70
2022-08-22T23:21:23.128Z,3.05
2022-08-22T23:24:26.623Z,3.28
2022-08-22T23:27:28.858Z,2.83
2022-08-22T23:30:31.783Z,3.00
2022-08-22T23:33:35.277Z,3.20
2022-08-22T23:36:38.342Z,3.95
2022-08-22T23:39:41.070Z,3.28
2022-08-22T23:42:43.373Z,2.75
2022-08-22T23:45:45.581Z,3.67
2022-08-22T23:48:48.260Z,4.47
2022-08-22T23:51:51.025Z,4.20
2022-08-22T23:54:54.620Z,3.95
2022-08-22T23:57:58.257Z,4.10
